sensor_id;sensor_type;location;lat;lon;timestamp;P1;durP1;ratioP1;P2;durP2;ratioP2
52586;SDS011;38480;52.724;6.436;2024-02-16T00:02:19;7.63;;;3.60;;
52586;SDS011;38480;52.724;6.436;2024-02-16T00:04:45;6.43;;;3.40;;
52586;SDS011;38480;52.724;6.436;2024-02-16T00:07:11;13.00;;;3.90;;
52586;SDS011;38480;52.724;6.436;2024-02-16T00:09:37;10.93;;;3.57;;
52586;SDS011;38480;52.724;6.436;2024-02-16T00:12:03;7.93;;;3.60;;
52586;SDS011;38480;52.724;6.436;2024-02-16T00:14:29;7.87;;;4.10;;
52586;SDS011;38480;52.724;6.436;2024-02-16T00:16:55;6.53;;;3.20;;
52586;SDS011;38480;52.724;6.436;2024-02-16T00:19:21;6.90;;;3.80;;
52586;SDS011;38480;52.724;6.436;2024-02-16T00:21:47;9.67;;;3.37;;
52586;SDS011;38480;52.724;6.436;2024-02-16T00:24:13;7.03;;;3.40;;
52586;SDS011;38480;52.724;6.436;2024-02-16T00:26:39;12.50;;;4.07;;
52586;SDS011;38480;52.724;6.436;2024-02-16T00:29:05;9.13;;;3.67;;
52586;SDS011;38480;52.724;6.436;2024-02-16T00:31:31;9.47;;;3.60;;
52586;SDS011;38480;52.724;6.436;2024-02-16T00:33:57;8.80;;;3.10;;
52586;SDS011;38480;52.724;6.436;2024-02-16T00:36:27;8.37;;;3.67;;
52586;SDS011;38480;52.724;6.436;2024-02-16T00:38:55;8.33;;;3.57;;
52586;SDS011;38480;52.724;6.436;2024-02-16T00:41:21;8.20;;;3.43;;
52586;SDS011;38480;52.724;6.436;2024-02-16T00:43:48;12.07;;;3.60;;
52586;SDS011;38480;52.724;6.436;2024-02-16T00:46:14;6.43;;;3.80;;
52586;SDS011;38480;52.724;6.436;2024-02-16T00:48:40;8.90;;;3.50;;
52586;SDS011;38480;52.724;6.436;2024-02-16T00:51:06;7.43;;;3.67;;
52586;SDS011;38480;52.724;6.436;2024-02-16T00:53:32;13.33;;;3.90;;
52586;SDS011;38480;52.724;6.436;2024-02-16T00:55:58;7.53;;;3.60;;
52586;SDS011;38480;52.724;6.436;2024-02-16T00:58:24;10.17;;;4.17;;
52586;SDS011;38480;52.724;6.436;2024-02-16T01:00:50;9.70;;;3.57;;
52586;SDS011;38480;52.724;6.436;2024-02-16T01:03:16;6.60;;;3.53;;
52586;SDS011;38480;52.724;6.436;2024-02-16T01:05:42;11.03;;;4.37;;
52586;SDS011;38480;52.724;6.436;2024-02-16T01:08:10;9.63;;;3.00;;
52586;SDS011;38480;52.724;6.436;2024-02-16T01:10:36;8.63;;;3.50;;
52586;SDS011;38480;52.724;6.436;2024-02-16T01:13:02;10.00;;;3.73;;
52586;SDS011;38480;52.724;6.436;2024-02-16T01:15:28;10.30;;;3.30;;
52586;SDS011;38480;52.724;6.436;2024-02-16T01:17:56;6.90;;;3.97;;
52586;SDS011;38480;52.724;6.436;2024-02-16T01:20:25;8.00;;;3.10;;
52586;SDS011;38480;52.724;6.436;2024-02-16T01:22:51;5.87;;;3.80;;
52586;SDS011;38480;52.724;6.436;2024-02-16T01:25:17;9.97;;;3.60;;
52586;SDS011;38480;52.724;6.436;2024-02-16T01:27:43;7.27;;;3.43;;
52586;SDS011;38480;52.724;6.436;2024-02-16T01:30:11;11.40;;;4.03;;
52586;SDS011;38480;52.724;6.436;2024-02-16T01:32:39;9.13;;;3.50;;
52586;SDS011;38480;52.724;6.436;2024-02-16T01:35:05;10.17;;;3.93;;
52586;SDS011;38480;52.724;6.436;2024-02-16T01:37:32;10.77;;;3.50;;
52586;SDS011;38480;52.724;6.436;2024-02-16T01:39:58;6.03;;;2.93;;
52586;SDS011;38480;52.724;6.436;2024-02-16T01:42:24;9.97;;;3.37;;
52586;SDS011;38480;52.724;6.436;2024-02-16T01:44:50;8.67;;;3.30;;
52586;SDS011;38480;52.724;6.436;2024-02-16T01:47:16;11.63;;;3.80;;
52586;SDS011;38480;52.724;6.436;2024-02-16T01:49:44;15.40;;;4.37;;
52586;SDS011;38480;52.724;6.436;2024-02-16T01:52:10;9.23;;;3.70;;
52586;SDS011;38480;52.724;6.436;2024-02-16T01:54:38;9.47;;;3.50;;
52586;SDS011;38480;52.724;6.436;2024-02-16T01:57:05;10.87;;;2.77;;
52586;SDS011;38480;52.724;6.436;2024-02-16T01:59:32;9.37;;;3.23;;
52586;SDS011;38480;52.724;6.436;2024-02-16T02:02:02;5.70;;;3.00;;
52586;SDS011;38480;52.724;6.436;2024-02-16T02:04:27;5.27;;;3.50;;
52586;SDS011;38480;52.724;6.436;2024-02-16T02:06:55;7.70;;;3.10;;
52586;SDS011;38480;52.724;6.436;2024-02-16T02:09:21;9.40;;;2.80;;
52586;SDS011;38480;52.724;6.436;2024-02-16T02:11:47;7.60;;;3.23;;
52586;SDS011;38480;52.724;6.436;2024-02-16T02:14:13;8.63;;;2.80;;
52586;SDS011;38480;52.724;6.436;2024-02-16T02:16:39;8.23;;;3.57;;
52586;SDS011;38480;52.724;6.436;2024-02-16T02:19:05;7.37;;;4.37;;
52586;SDS011;38480;52.724;6.436;2024-02-16T02:21:31;10.73;;;3.10;;
52586;SDS011;38480;52.724;6.436;2024-02-16T02:23:57;8.67;;;3.27;;
52586;SDS011;38480;52.724;6.436;2024-02-16T02:26:24;7.30;;;3.27;;
52586;SDS011;38480;52.724;6.436;2024-02-16T02:28:50;6.57;;;3.33;;
52586;SDS011;38480;52.724;6.436;2024-02-16T02:31:16;7.37;;;3.20;;
52586;SDS011;38480;52.724;6.436;2024-02-16T02:33:42;6.37;;;3.03;;
52586;SDS011;38480;52.724;6.436;2024-02-16T02:36:08;8.33;;;3.30;;
52586;SDS011;38480;52.724;6.436;2024-02-16T02:38:34;7.00;;;2.87;;
52586;SDS011;38480;52.724;6.436;2024-02-16T02:41:00;7.50;;;2.90;;
52586;SDS011;38480;52.724;6.436;2024-02-16T02:43:26;8.10;;;2.53;;
52586;SDS011;38480;52.724;6.436;2024-02-16T02:45:54;6.90;;;3.27;;
52586;SDS011;38480;52.724;6.436;2024-02-16T02:48:20;8.93;;;3.63;;
52586;SDS011;38480;52.724;6.436;2024-02-16T02:50:46;9.43;;;3.00;;
52586;SDS011;38480;52.724;6.436;2024-02-16T02:53:12;8.50;;;3.40;;
52586;SDS011;38480;52.724;6.436;2024-02-16T02:55:38;9.03;;;2.97;;
52586;SDS011;38480;52.724;6.436;2024-02-16T02:58:04;9.57;;;3.03;;
52586;SDS011;38480;52.724;6.436;2024-02-16T03:00:30;6.90;;;2.63;;
52586;SDS011;38480;52.724;6.436;2024-02-16T03:02:56;7.00;;;2.50;;
52586;SDS011;38480;52.724;6.436;2024-02-16T03:05:23;7.07;;;2.80;;
52586;SDS011;38480;52.724;6.436;2024-02-16T03:07:49;5.57;;;2.90;;
52586;SDS011;38480;52.724;6.436;2024-02-16T03:10:16;5.83;;;3.37;;
52586;SDS011;38480;52.724;6.436;2024-02-16T03:12:48;6.80;;;2.60;;
52586;SDS011;38480;52.724;6.436;2024-02-16T03:15:15;6.67;;;2.77;;
52586;SDS011;38480;52.724;6.436;2024-02-16T03:17:41;6.67;;;2.80;;
52586;SDS011;38480;52.724;6.436;2024-02-16T03:20:07;6.43;;;3.23;;
52586;SDS011;38480;52.724;6.436;2024-02-16T03:22:33;10.60;;;4.33;;
52586;SDS011;38480;52.724;6.436;2024-02-16T03:24:59;8.40;;;2.63;;
52586;SDS011;38480;52.724;6.436;2024-02-16T03:27:25;7.13;;;2.33;;
52586;SDS011;38480;52.724;6.436;2024-02-16T03:29:51;7.57;;;3.03;;
52586;SDS011;38480;52.724;6.436;2024-02-16T03:32:18;5.73;;;2.10;;
52586;SDS011;38480;52.724;6.436;2024-02-16T03:34:44;6.27;;;2.40;;
52586;SDS011;38480;52.724;6.436;2024-02-16T03:37:10;5.83;;;2.57;;
52586;SDS011;38480;52.724;6.436;2024-02-16T03:39:36;5.77;;;3.10;;
52586;SDS011;38480;52.724;6.436;2024-02-16T03:42:02;6.60;;;2.73;;
52586;SDS011;38480;52.724;6.436;2024-02-16T03:44:28;6.43;;;2.60;;
52586;SDS011;38480;52.724;6.436;2024-02-16T03:46:54;8.77;;;2.50;;
52586;SDS011;38480;52.724;6.436;2024-02-16T03:49:20;8.43;;;3.47;;
52586;SDS011;38480;52.724;6.436;2024-02-16T03:51:46;4.70;;;2.93;;
52586;SDS011;38480;52.724;6.436;2024-02-16T03:54:12;7.17;;;2.87;;
52586;SDS011;38480;52.724;6.436;2024-02-16T03:56:38;9.07;;;2.87;;
52586;SDS011;38480;52.724;6.436;2024-02-16T03:59:05;7.20;;;2.57;;
52586;SDS011;38480;52.724;6.436;2024-02-16T04:01:33;5.30;;;2.70;;
52586;SDS011;38480;52.724;6.436;2024-02-16T04:03:59;7.97;;;3.57;;
52586;SDS011;38480;52.724;6.436;2024-02-16T04:06:25;5.87;;;2.43;;
52586;SDS011;38480;52.724;6.436;2024-02-16T04:08:51;8.20;;;3.13;;
52586;SDS011;38480;52.724;6.436;2024-02-16T04:11:17;10.40;;;2.53;;
52586;SDS011;38480;52.724;6.436;2024-02-16T04:13:43;6.13;;;2.83;;
52586;SDS011;38480;52.724;6.436;2024-02-16T04:16:11;5.67;;;2.30;;
52586;SDS011;38480;52.724;6.436;2024-02-16T04:18:37;7.30;;;2.93;;
52586;SDS011;38480;52.724;6.436;2024-02-16T04:21:03;8.27;;;2.80;;
52586;SDS011;38480;52.724;6.436;2024-02-16T04:23:29;6.00;;;2.67;;
52586;SDS011;38480;52.724;6.436;2024-02-16T04:25:55;6.03;;;3.60;;
52586;SDS011;38480;52.724;6.436;2024-02-16T04:28:21;5.63;;;2.57;;
52586;SDS011;38480;52.724;6.436;2024-02-16T04:30:50;4.57;;;2.27;;
52586;SDS011;38480;52.724;6.436;2024-02-16T04:33:16;7.37;;;2.40;;
52586;SDS011;38480;52.724;6.436;2024-02-16T04:35:43;5.17;;;2.83;;
52586;SDS011;38480;52.724;6.436;2024-02-16T04:38:11;9.43;;;2.87;;
52586;SDS011;38480;52.724;6.436;2024-02-16T04:40:38;6.03;;;2.97;;
52586;SDS011;38480;52.724;6.436;2024-02-16T04:43:04;6.47;;;2.43;;
52586;SDS011;38480;52.724;6.436;2024-02-16T04:45:30;4.60;;;2.63;;
52586;SDS011;38480;52.724;6.436;2024-02-16T04:47:56;8.57;;;3.13;;
52586;SDS011;38480;52.724;6.436;2024-02-16T04:50:24;8.77;;;2.73;;
52586;SDS011;38480;52.724;6.436;2024-02-16T04:52:50;7.53;;;2.53;;
52586;SDS011;38480;52.724;6.436;2024-02-16T04:55:16;13.20;;;3.50;;
52586;SDS011;38480;52.724;6.436;2024-02-16T04:57:44;6.40;;;2.60;;
52586;SDS011;38480;52.724;6.436;2024-02-16T05:00:11;6.70;;;2.40;;
52586;SDS011;38480;52.724;6.436;2024-02-16T05:02:37;7.53;;;2.70;;
52586;SDS011;38480;52.724;6.436;2024-02-16T05:05:05;5.70;;;3.00;;
52586;SDS011;38480;52.724;6.436;2024-02-16T05:07:31;9.27;;;2.77;;
52586;SDS011;38480;52.724;6.436;2024-02-16T05:09:57;4.47;;;2.60;;
52586;SDS011;38480;52.724;6.436;2024-02-16T05:12:24;8.70;;;3.53;;
52586;SDS011;38480;52.724;6.436;2024-02-16T05:14:50;4.73;;;2.23;;
52586;SDS011;38480;52.724;6.436;2024-02-16T05:17:18;7.20;;;2.93;;
52586;SDS011;38480;52.724;6.436;2024-02-16T05:19:44;7.13;;;2.57;;
52586;SDS011;38480;52.724;6.436;2024-02-16T05:22:10;4.83;;;2.50;;
52586;SDS011;38480;52.724;6.436;2024-02-16T05:24:36;8.07;;;2.70;;
52586;SDS011;38480;52.724;6.436;2024-02-16T05:27:02;6.30;;;2.70;;
52586;SDS011;38480;52.724;6.436;2024-02-16T05:29:28;9.40;;;4.37;;
52586;SDS011;38480;52.724;6.436;2024-02-16T05:31:54;9.70;;;2.73;;
52586;SDS011;38480;52.724;6.436;2024-02-16T05:34:20;6.60;;;2.80;;
52586;SDS011;38480;52.724;6.436;2024-02-16T05:36:49;7.07;;;2.50;;
52586;SDS011;38480;52.724;6.436;2024-02-16T05:39:15;7.50;;;2.50;;
52586;SDS011;38480;52.724;6.436;2024-02-16T05:41:56;6.37;;;3.33;;
52586;SDS011;38480;52.724;6.436;2024-02-16T05:44:22;6.30;;;2.90;;
52586;SDS011;38480;52.724;6.436;2024-02-16T05:46:51;5.67;;;2.37;;
52586;SDS011;38480;52.724;6.436;2024-02-16T05:49:19;4.47;;;2.50;;
52586;SDS011;38480;52.724;6.436;2024-02-16T05:51:48;7.70;;;3.07;;
52586;SDS011;38480;52.724;6.436;2024-02-16T05:54:32;4.73;;;2.83;;
52586;SDS011;38480;52.724;6.436;2024-02-16T05:56:59;5.53;;;2.87;;
52586;SDS011;38480;52.724;6.436;2024-02-16T05:59:26;6.33;;;3.00;;
52586;SDS011;38480;52.724;6.436;2024-02-16T06:01:52;11.00;;;3.40;;
52586;SDS011;38480;52.724;6.436;2024-02-16T06:04:18;10.23;;;3.90;;
52586;SDS011;38480;52.724;6.436;2024-02-16T06:06:46;16.17;;;4.63;;
52586;SDS011;38480;52.724;6.436;2024-02-16T06:09:12;8.93;;;2.90;;
52586;SDS011;38480;52.724;6.436;2024-02-16T06:11:38;5.30;;;2.53;;
52586;SDS011;38480;52.724;6.436;2024-02-16T06:14:04;7.53;;;2.67;;
52586;SDS011;38480;52.724;6.436;2024-02-16T06:16:30;6.90;;;2.73;;
52586;SDS011;38480;52.724;6.436;2024-02-16T06:18:56;6.83;;;2.97;;
52586;SDS011;38480;52.724;6.436;2024-02-16T06:21:22;7.50;;;2.70;;
52586;SDS011;38480;52.724;6.436;2024-02-16T06:23:48;7.53;;;2.97;;
52586;SDS011;38480;52.724;6.436;2024-02-16T06:26:16;8.77;;;2.93;;
52586;SDS011;38480;52.724;6.436;2024-02-16T06:28:42;7.33;;;3.00;;
52586;SDS011;38480;52.724;6.436;2024-02-16T06:31:08;6.87;;;2.93;;
52586;SDS011;38480;52.724;6.436;2024-02-16T06:33:35;4.60;;;3.03;;
52586;SDS011;38480;52.724;6.436;2024-02-16T06:36:01;4.50;;;2.90;;
52586;SDS011;38480;52.724;6.436;2024-02-16T06:38:27;7.27;;;2.90;;
52586;SDS011;38480;52.724;6.436;2024-02-16T06:40:53;5.83;;;3.53;;
52586;SDS011;38480;52.724;6.436;2024-02-16T06:43:19;5.80;;;3.00;;
52586;SDS011;38480;52.724;6.436;2024-02-16T06:45:45;4.13;;;2.83;;
52586;SDS011;38480;52.724;6.436;2024-02-16T06:48:11;5.07;;;3.20;;
52586;SDS011;38480;52.724;6.436;2024-02-16T06:50:37;6.17;;;3.00;;
52586;SDS011;38480;52.724;6.436;2024-02-16T06:53:03;9.20;;;3.93;;
52586;SDS011;38480;52.724;6.436;2024-02-16T06:55:30;4.27;;;2.70;;
52586;SDS011;38480;52.724;6.436;2024-02-16T06:57:58;4.80;;;2.80;;
52586;SDS011;38480;52.724;6.436;2024-02-16T07:00:24;5.13;;;2.93;;
52586;SDS011;38480;52.724;6.436;2024-02-16T07:02:50;6.77;;;2.90;;
52586;SDS011;38480;52.724;6.436;2024-02-16T07:05:16;11.60;;;2.90;;
52586;SDS011;38480;52.724;6.436;2024-02-16T07:07:42;6.00;;;3.07;;
52586;SDS011;38480;52.724;6.436;2024-02-16T07:10:08;5.63;;;2.87;;
52586;SDS011;38480;52.724;6.436;2024-02-16T07:12:38;4.93;;;3.03;;
52586;SDS011;38480;52.724;6.436;2024-02-16T07:15:04;7.37;;;3.00;;
52586;SDS011;38480;52.724;6.436;2024-02-16T07:17:30;8.00;;;3.20;;
52586;SDS011;38480;52.724;6.436;2024-02-16T07:19:57;5.13;;;2.93;;
52586;SDS011;38480;52.724;6.436;2024-02-16T07:22:23;7.37;;;3.10;;
52586;SDS011;38480;52.724;6.436;2024-02-16T07:24:48;5.53;;;3.00;;
52586;SDS011;38480;52.724;6.436;2024-02-16T07:27:14;12.53;;;3.20;;
52586;SDS011;38480;52.724;6.436;2024-02-16T07:29:42;6.83;;;3.30;;
52586;SDS011;38480;52.724;6.436;2024-02-16T07:32:08;10.60;;;4.53;;
52586;SDS011;38480;52.724;6.436;2024-02-16T07:34:34;6.63;;;3.00;;
52586;SDS011;38480;52.724;6.436;2024-02-16T07:37:00;5.00;;;3.20;;
52586;SDS011;38480;52.724;6.436;2024-02-16T07:39:26;8.00;;;3.80;;
52586;SDS011;38480;52.724;6.436;2024-02-16T07:41:52;6.13;;;3.53;;
52586;SDS011;38480;52.724;6.436;2024-02-16T07:44:18;8.40;;;4.03;;
52586;SDS011;38480;52.724;6.436;2024-02-16T07:46:44;6.97;;;3.10;;
52586;SDS011;38480;52.724;6.436;2024-02-16T07:49:11;5.57;;;3.70;;
52586;SDS011;38480;52.724;6.436;2024-02-16T07:51:37;7.87;;;3.77;;
52586;SDS011;38480;52.724;6.436;2024-02-16T07:54:03;8.20;;;3.67;;
52586;SDS011;38480;52.724;6.436;2024-02-16T07:56:29;6.30;;;3.00;;
52586;SDS011;38480;52.724;6.436;2024-02-16T07:58:55;9.40;;;3.53;;
52586;SDS011;38480;52.724;6.436;2024-02-16T08:01:22;6.87;;;2.87;;
52586;SDS011;38480;52.724;6.436;2024-02-16T08:03:48;4.53;;;3.23;;
52586;SDS011;38480;52.724;6.436;2024-02-16T08:06:14;6.23;;;3.30;;
52586;SDS011;38480;52.724;6.436;2024-02-16T08:08:41;6.43;;;3.47;;
52586;SDS011;38480;52.724;6.436;2024-02-16T08:11:07;5.63;;;3.30;;
52586;SDS011;38480;52.724;6.436;2024-02-16T08:13:33;7.63;;;3.80;;
52586;SDS011;38480;52.724;6.436;2024-02-16T08:15:59;5.70;;;2.90;;
52586;SDS011;38480;52.724;6.436;2024-02-16T08:18:25;7.00;;;3.30;;
52586;SDS011;38480;52.724;6.436;2024-02-16T08:20:51;6.60;;;4.07;;
52586;SDS011;38480;52.724;6.436;2024-02-16T08:23:19;7.33;;;3.37;;
52586;SDS011;38480;52.724;6.436;2024-02-16T08:25:45;7.60;;;3.80;;
52586;SDS011;38480;52.724;6.436;2024-02-16T08:28:12;7.33;;;3.83;;
52586;SDS011;38480;52.724;6.436;2024-02-16T08:30:39;6.07;;;3.67;;
52586;SDS011;38480;52.724;6.436;2024-02-16T08:33:08;5.83;;;3.07;;
52586;SDS011;38480;52.724;6.436;2024-02-16T08:35:35;9.20;;;4.00;;
52586;SDS011;38480;52.724;6.436;2024-02-16T08:38:01;6.90;;;3.40;;
52586;SDS011;38480;52.724;6.436;2024-02-16T08:40:27;10.27;;;3.77;;
52586;SDS011;38480;52.724;6.436;2024-02-16T08:42:53;12.47;;;3.53;;
52586;SDS011;38480;52.724;6.436;2024-02-16T08:45:19;10.93;;;3.80;;
52586;SDS011;38480;52.724;6.436;2024-02-16T08:47:45;6.93;;;3.63;;
52586;SDS011;38480;52.724;6.436;2024-02-16T08:50:11;5.30;;;3.67;;
52586;SDS011;38480;52.724;6.436;2024-02-16T08:52:37;6.40;;;3.53;;
52586;SDS011;38480;52.724;6.436;2024-02-16T08:55:04;5.80;;;3.60;;
52586;SDS011;38480;52.724;6.436;2024-02-16T08:57:31;6.87;;;4.33;;
52586;SDS011;38480;52.724;6.436;2024-02-16T08:59:58;6.93;;;4.10;;
52586;SDS011;38480;52.724;6.436;2024-02-16T09:02:24;10.70;;;3.83;;
52586;SDS011;38480;52.724;6.436;2024-02-16T09:04:52;4.93;;;3.70;;
52586;SDS011;38480;52.724;6.436;2024-02-16T09:07:18;9.33;;;3.70;;
52586;SDS011;38480;52.724;6.436;2024-02-16T09:09:45;5.50;;;3.70;;
52586;SDS011;38480;52.724;6.436;2024-02-16T09:12:11;9.87;;;3.80;;
52586;SDS011;38480;52.724;6.436;2024-02-16T09:14:37;12.40;;;3.83;;
52586;SDS011;38480;52.724;6.436;2024-02-16T09:17:03;5.37;;;3.40;;
52586;SDS011;38480;52.724;6.436;2024-02-16T09:19:29;9.73;;;5.13;;
52586;SDS011;38480;52.724;6.436;2024-02-16T09:21:55;8.53;;;3.63;;
52586;SDS011;38480;52.724;6.436;2024-02-16T09:24:23;9.13;;;3.50;;
52586;SDS011;38480;52.724;6.436;2024-02-16T09:26:53;8.00;;;3.60;;
52586;SDS011;38480;52.724;6.436;2024-02-16T09:29:19;7.30;;;3.27;;
52586;SDS011;38480;52.724;6.436;2024-02-16T09:31:48;6.63;;;3.67;;
52586;SDS011;38480;52.724;6.436;2024-02-16T09:34:15;7.83;;;3.60;;
52586;SDS011;38480;52.724;6.436;2024-02-16T09:36:42;5.57;;;3.60;;
52586;SDS011;38480;52.724;6.436;2024-02-16T09:39:09;8.57;;;3.67;;
52586;SDS011;38480;52.724;6.436;2024-02-16T09:41:35;10.73;;;4.27;;
52586;SDS011;38480;52.724;6.436;2024-02-16T09:44:02;8.70;;;4.17;;
52586;SDS011;38480;52.724;6.436;2024-02-16T09:46:28;7.20;;;3.80;;
52586;SDS011;38480;52.724;6.436;2024-02-16T09:48:55;8.00;;;3.80;;
52586;SDS011;38480;52.724;6.436;2024-02-16T09:51:22;7.20;;;3.97;;
52586;SDS011;38480;52.724;6.436;2024-02-16T09:53:50;7.77;;;3.90;;
52586;SDS011;38480;52.724;6.436;2024-02-16T09:56:20;5.90;;;4.07;;
52586;SDS011;38480;52.724;6.436;2024-02-16T09:58:46;8.07;;;4.07;;
52586;SDS011;38480;52.724;6.436;2024-02-16T10:01:19;9.77;;;4.37;;
52586;SDS011;38480;52.724;6.436;2024-02-16T10:03:48;7.53;;;4.07;;
52586;SDS011;38480;52.724;6.436;2024-02-16T10:06:15;9.17;;;4.43;;
52586;SDS011;38480;52.724;6.436;2024-02-16T10:08:50;12.33;;;4.73;;
52586;SDS011;38480;52.724;6.436;2024-02-16T10:11:17;7.53;;;3.97;;
52586;SDS011;38480;52.724;6.436;2024-02-16T10:16:22;12.77;;;4.40;;
52586;SDS011;38480;52.724;6.436;2024-02-16T10:18:48;17.40;;;5.07;;
52586;SDS011;38480;52.724;6.436;2024-02-16T10:21:23;9.50;;;4.70;;
52586;SDS011;38480;52.724;6.436;2024-02-16T10:24:04;6.63;;;4.27;;
52586;SDS011;38480;52.724;6.436;2024-02-16T10:26:33;9.30;;;4.63;;
52586;SDS011;38480;52.724;6.436;2024-02-16T10:29:02;10.07;;;4.70;;
52586;SDS011;38480;52.724;6.436;2024-02-16T10:31:28;8.53;;;4.57;;
52586;SDS011;38480;52.724;6.436;2024-02-16T10:33:59;9.43;;;5.10;;
52586;SDS011;38480;52.724;6.436;2024-02-16T10:36:26;10.27;;;4.80;;
52586;SDS011;38480;52.724;6.436;2024-02-16T10:38:54;11.60;;;5.70;;
52586;SDS011;38480;52.724;6.436;2024-02-16T10:41:21;8.70;;;6.27;;
52586;SDS011;38480;52.724;6.436;2024-02-16T10:43:48;10.90;;;6.03;;
52586;SDS011;38480;52.724;6.436;2024-02-16T10:46:17;13.13;;;7.27;;
52586;SDS011;38480;52.724;6.436;2024-02-16T10:48:43;12.17;;;6.23;;
52586;SDS011;38480;52.724;6.436;2024-02-16T10:51:09;10.27;;;7.33;;
52586;SDS011;38480;52.724;6.436;2024-02-16T10:53:37;8.60;;;5.93;;
52586;SDS011;38480;52.724;6.436;2024-02-16T10:56:03;10.43;;;7.17;;
52586;SDS011;38480;52.724;6.436;2024-02-16T10:58:29;12.27;;;6.23;;
52586;SDS011;38480;52.724;6.436;2024-02-16T11:00:56;11.17;;;6.87;;
52586;SDS011;38480;52.724;6.436;2024-02-16T11:03:23;12.87;;;6.77;;
52586;SDS011;38480;52.724;6.436;2024-02-16T11:05:50;13.20;;;6.67;;
52586;SDS011;38480;52.724;6.436;2024-02-16T11:08:16;8.33;;;6.40;;
52586;SDS011;38480;52.724;6.436;2024-02-16T11:10:55;10.67;;;6.47;;
52586;SDS011;38480;52.724;6.436;2024-02-16T11:13:22;12.00;;;6.13;;
52586;SDS011;38480;52.724;6.436;2024-02-16T11:15:56;13.53;;;6.90;;
52586;SDS011;38480;52.724;6.436;2024-02-16T11:18:23;10.82;;;6.45;;
52586;SDS011;38480;52.724;6.436;2024-02-16T11:20:49;10.47;;;6.57;;
52586;SDS011;38480;52.724;6.436;2024-02-16T11:23:15;15.83;;;7.80;;
52586;SDS011;38480;52.724;6.436;2024-02-16T11:25:49;15.70;;;8.20;;
52586;SDS011;38480;52.724;6.436;2024-02-16T11:28:18;13.23;;;8.20;;
52586;SDS011;38480;52.724;6.436;2024-02-16T11:30:44;15.13;;;9.80;;
52586;SDS011;38480;52.724;6.436;2024-02-16T11:33:11;15.67;;;9.67;;
52586;SDS011;38480;52.724;6.436;2024-02-16T11:35:37;18.53;;;11.00;;
52586;SDS011;38480;52.724;6.436;2024-02-16T11:38:03;16.23;;;11.07;;
52586;SDS011;38480;52.724;6.436;2024-02-16T11:40:30;20.57;;;12.87;;
52586;SDS011;38480;52.724;6.436;2024-02-16T11:42:59;23.63;;;12.97;;
52586;SDS011;38480;52.724;6.436;2024-02-16T11:45:26;20.87;;;13.43;;
52586;SDS011;38480;52.724;6.436;2024-02-16T11:48:03;21.67;;;14.20;;
52586;SDS011;38480;52.724;6.436;2024-02-16T11:50:29;26.20;;;15.63;;
52586;SDS011;38480;52.724;6.436;2024-02-16T11:52:55;27.87;;;17.00;;
52586;SDS011;38480;52.724;6.436;2024-02-16T11:55:21;25.17;;;17.13;;
52586;SDS011;38480;52.724;6.436;2024-02-16T11:57:47;34.37;;;18.90;;
52586;SDS011;38480;52.724;6.436;2024-02-16T12:00:15;42.50;;;21.93;;
52586;SDS011;38480;52.724;6.436;2024-02-16T12:02:42;52.40;;;27.27;;
52586;SDS011;38480;52.724;6.436;2024-02-16T12:05:08;49.87;;;29.37;;
52586;SDS011;38480;52.724;6.436;2024-02-16T12:07:37;50.20;;;28.93;;
52586;SDS011;38480;52.724;6.436;2024-02-16T12:10:05;45.80;;;24.33;;
52586;SDS011;38480;52.724;6.436;2024-02-16T12:12:32;40.97;;;24.43;;
52586;SDS011;38480;52.724;6.436;2024-02-16T12:14:58;45.60;;;23.83;;
52586;SDS011;38480;52.724;6.436;2024-02-16T12:17:24;39.10;;;22.73;;
52586;SDS011;38480;52.724;6.436;2024-02-16T12:19:51;49.77;;;25.80;;
52586;SDS011;38480;52.724;6.436;2024-02-16T12:22:17;47.83;;;24.83;;
52586;SDS011;38480;52.724;6.436;2024-02-16T12:24:47;43.23;;;24.57;;
52586;SDS011;38480;52.724;6.436;2024-02-16T12:27:13;51.60;;;25.73;;
52586;SDS011;38480;52.724;6.436;2024-02-16T12:29:42;41.60;;;21.23;;
52586;SDS011;38480;52.724;6.436;2024-02-16T12:32:08;41.70;;;20.50;;
52586;SDS011;38480;52.724;6.436;2024-02-16T12:34:35;37.97;;;18.63;;
52586;SDS011;38480;52.724;6.436;2024-02-16T12:37:04;26.77;;;14.30;;
52586;SDS011;38480;52.724;6.436;2024-02-16T12:39:36;27.27;;;13.70;;
52586;SDS011;38480;52.724;6.436;2024-02-16T12:42:02;26.10;;;12.17;;
52586;SDS011;38480;52.724;6.436;2024-02-16T12:44:28;28.87;;;12.43;;
52586;SDS011;38480;52.724;6.436;2024-02-16T12:46:55;30.80;;;13.17;;
52586;SDS011;38480;52.724;6.436;2024-02-16T12:49:22;26.20;;;13.13;;
52586;SDS011;38480;52.724;6.436;2024-02-16T12:51:49;31.90;;;14.97;;
52586;SDS011;38480;52.724;6.436;2024-02-16T12:54:15;35.43;;;14.80;;
52586;SDS011;38480;52.724;6.436;2024-02-16T12:56:44;31.80;;;14.17;;
52586;SDS011;38480;52.724;6.436;2024-02-16T12:59:10;25.37;;;12.97;;
52586;SDS011;38480;52.724;6.436;2024-02-16T13:01:36;25.13;;;13.07;;
52586;SDS011;38480;52.724;6.436;2024-02-16T13:04:02;26.20;;;14.03;;
52586;SDS011;38480;52.724;6.436;2024-02-16T13:06:29;21.20;;;11.47;;
52586;SDS011;38480;52.724;6.436;2024-02-16T13:08:55;28.90;;;14.23;;
52586;SDS011;38480;52.724;6.436;2024-02-16T13:11:21;19.63;;;11.73;;
52586;SDS011;38480;52.724;6.436;2024-02-16T13:13:47;37.47;;;15.30;;
52586;SDS011;38480;52.724;6.436;2024-02-16T13:16:13;36.87;;;16.20;;
52586;SDS011;38480;52.724;6.436;2024-02-16T13:18:39;24.27;;;11.77;;
52586;SDS011;38480;52.724;6.436;2024-02-16T13:21:06;24.77;;;12.60;;
52586;SDS011;38480;52.724;6.436;2024-02-16T13:23:32;25.97;;;12.50;;
52586;SDS011;38480;52.724;6.436;2024-02-16T13:25:58;20.70;;;11.10;;
52586;SDS011;38480;52.724;6.436;2024-02-16T13:28:24;19.00;;;10.00;;
52586;SDS011;38480;52.724;6.436;2024-02-16T13:30:50;20.30;;;11.33;;
52586;SDS011;38480;52.724;6.436;2024-02-16T13:33:16;19.60;;;10.20;;
52586;SDS011;38480;52.724;6.436;2024-02-16T13:35:42;14.73;;;8.87;;
52586;SDS011;38480;52.724;6.436;2024-02-16T13:38:08;22.63;;;10.07;;
52586;SDS011;38480;52.724;6.436;2024-02-16T13:40:34;14.13;;;8.23;;
52586;SDS011;38480;52.724;6.436;2024-02-16T13:43:01;18.70;;;9.67;;
52586;SDS011;38480;52.724;6.436;2024-02-16T13:45:28;12.97;;;8.37;;
52586;SDS011;38480;52.724;6.436;2024-02-16T13:47:58;14.17;;;8.13;;
52586;SDS011;38480;52.724;6.436;2024-02-16T13:50:24;13.13;;;7.77;;
52586;SDS011;38480;52.724;6.436;2024-02-16T13:52:50;10.47;;;6.90;;
52586;SDS011;38480;52.724;6.436;2024-02-16T13:55:16;11.00;;;6.70;;
52586;SDS011;38480;52.724;6.436;2024-02-16T13:57:42;14.83;;;8.00;;
52586;SDS011;38480;52.724;6.436;2024-02-16T14:00:08;13.07;;;7.30;;
52586;SDS011;38480;52.724;6.436;2024-02-16T14:02:34;17.03;;;8.13;;
52586;SDS011;38480;52.724;6.436;2024-02-16T14:05:00;10.13;;;6.87;;
52586;SDS011;38480;52.724;6.436;2024-02-16T14:07:27;13.30;;;7.70;;
52586;SDS011;38480;52.724;6.436;2024-02-16T14:09:53;11.67;;;6.40;;
52586;SDS011;38480;52.724;6.436;2024-02-16T14:12:19;13.13;;;7.93;;
52586;SDS011;38480;52.724;6.436;2024-02-16T14:14:45;9.13;;;6.10;;
52586;SDS011;38480;52.724;6.436;2024-02-16T14:17:11;8.13;;;6.43;;
52586;SDS011;38480;52.724;6.436;2024-02-16T14:19:37;9.23;;;5.73;;
52586;SDS011;38480;52.724;6.436;2024-02-16T14:22:03;11.57;;;6.97;;
52586;SDS011;38480;52.724;6.436;2024-02-16T14:24:32;8.43;;;5.80;;
52586;SDS011;38480;52.724;6.436;2024-02-16T14:26:58;7.43;;;4.40;;
52586;SDS011;38480;52.724;6.436;2024-02-16T14:29:24;9.90;;;5.10;;
52586;SDS011;38480;52.724;6.436;2024-02-16T14:31:50;7.47;;;4.43;;
52586;SDS011;38480;52.724;6.436;2024-02-16T14:34:17;7.50;;;4.73;;
52586;SDS011;38480;52.724;6.436;2024-02-16T14:36:43;9.30;;;5.73;;
52586;SDS011;38480;52.724;6.436;2024-02-16T14:39:09;8.97;;;4.97;;
52586;SDS011;38480;52.724;6.436;2024-02-16T14:41:36;5.83;;;3.93;;